Time;durP1;ratioP1;P1;durP2;ratioP2;P2;SDS_P1;SDS_P2;PMS_P1;PMS_P2;Temp;Humidity;BMP_temperature;BMP_pressure;BME280_temperature;BME280_humidity;BME280_pressure;Samples;Min_cycle;Max_cycle;Signal;HPM_P1;HPM_P2
2022/11/27 00:01:37;;;;;;;24.25;11.00;;;;;;;;;;5112027;28;20043;-65
2022/11/27 00:04:04;;;;;;;20.98;10.70;;;;;;;;;;5111836;28;20020;-64
2022/11/27 00:06:30;;;;;;;28.00;11.43;;;;;;;;;;5111798;28;20028;-64
2022/11/27 00:08:57;;;;;;;19.25;9.90;;;;;;;;;;5111603;28;20027;-65
2022/11/27 00:11:24;;;;;;;19.25;10.20;;;;;;;;;;5111110;28;20027;-64
2022/11/27 00:13:50;;;;;;;22.60;9.88;;;;;;;;;;5111463;28;20019;-64
2022/11/27 00:16:17;;;;;;;24.05;11.45;;;;;;;;;;5111925;28;20039;-65
2022/11/27 00:18:43;;;;;;;19.95;9.88;;;;;;;;;;5111787;28;20044;-65
2022/11/27 00:21:18;;;;;;;35.42;10.68;;;;;;;;;;5111624;28;20441;-65
2022/11/27 00:23:44;;;;;;;27.25;10.85;;;;;;;;;;5111625;28;20040;-65
2022/11/27 00:26:11;;;;;;;36.80;11.68;;;;;;;;;;5111155;28;20027;-65
2022/11/27 00:28:37;;;;;;;29.50;9.30;;;;;;;;;;5111823;28;20020;-65
2022/11/27 00:31:06;;;;;;;23.80;10.18;;;;;;;;;;5111659;28;20047;-65
2022/11/27 00:33:32;;;;;;;27.48;11.40;;;;;;;;;;5109004;28;20285;-65
2022/11/27 00:36:04;;;;;;;33.03;12.45;;;;;;;;;;5111323;28;20034;-64
2022/11/27 00:38:30;;;;;;;24.83;11.85;;;;;;;;;;5111341;28;20028;-65
2022/11/27 00:41:14;;;;;;;32.78;12.70;;;;;;;;;;5111077;28;20103;-65
2022/11/27 00:43:40;;;;;;;30.45;11.73;;;;;;;;;;5111419;28;20016;-65
2022/11/27 00:46:05;;;;;;;25.65;11.18;;;;;;;;;;5111668;28;20398;-65
2022/11/27 00:48:31;;;;;;;33.08;10.98;;;;;;;;;;5111149;28;20085;-64
2022/11/27 00:51:06;;;;;;;33.83;10.23;;;;;;;;;;5111110;28;20023;-65
2022/11/27 00:53:32;;;;;;;33.35;12.45;;;;;;;;;;5110784;28;20032;-64
2022/11/27 00:55:59;;;;;;;34.03;12.55;;;;;;;;;;5107454;28;20027;-64
2022/11/27 00:58:25;;;;;;;59.08;13.38;;;;;;;;;;5111076;28;20069;-64
2022/11/27 01:01:00;;;;;;;30.00;11.93;;;;;;;;;;5110082;28;20018;-65
2022/11/27 01:03:26;;;;;;;38.00;10.20;;;;;;;;;;5105137;28;20036;-65
2022/11/27 01:05:52;;;;;;;26.70;10.13;;;;;;;;;;5090605;28;20025;-66
2022/11/27 01:08:18;;;;;;;40.45;9.05;;;;;;;;;;5093294;28;20032;-65
2022/11/27 01:10:51;;;;;;;21.63;9.77;;;;;;;;;;5093168;28;20123;-65
2022/11/27 01:13:17;;;;;;;28.73;9.10;;;;;;;;;;5093181;28;20497;-65
2022/11/27 01:15:44;;;;;;;43.50;10.00;;;;;;;;;;5093467;28;20028;-65
2022/11/27 01:18:10;;;;;;;34.67;9.35;;;;;;;;;;5094876;28;20031;-64
2022/11/27 01:20:39;;;;;;;31.33;9.52;;;;;;;;;;5094712;28;20390;-64
2022/11/27 01:23:06;;;;;;;23.60;9.27;;;;;;;;;;5094713;28;20027;-64
2022/11/27 01:25:33;;;;;;;23.30;9.43;;;;;;;;;;5102552;28;20027;-65
2022/11/27 01:27:59;;;;;;;20.98;9.02;;;;;;;;;;5114166;28;20047;-64
2022/11/27 01:30:24;;;;;;;23.58;10.88;;;;;;;;;;5113727;28;20414;-65
2022/11/27 01:32:50;;;;;;;23.00;11.35;;;;;;;;;;5112188;28;20058;-64
2022/11/27 01:35:15;;;;;;;20.83;9.75;;;;;;;;;;5113568;28;20533;-64
2022/11/27 01:37:41;;;;;;;29.65;10.93;;;;;;;;;;5113588;28;20035;-64
2022/11/27 01:40:07;;;;;;;32.08;11.77;;;;;;;;;;5113641;28;20023;-64
2022/11/27 01:42:32;;;;;;;26.73;11.48;;;;;;;;;;5113318;28;20015;-65
2022/11/27 01:44:58;;;;;;;29.38;11.77;;;;;;;;;;5113464;28;20092;-64
2022/11/27 01:47:43;;;;;;;50.67;11.15;;;;;;;;;;5113495;28;20016;-64
2022/11/27 01:50:17;;;;;;;52.58;13.43;;;;;;;;;;5112416;28;20027;-65
2022/11/27 01:52:49;;;;;;;43.45;11.90;;;;;;;;;;5111662;28;20035;-64
2022/11/27 01:55:32;;;;;;;54.92;12.07;;;;;;;;;;5113828;28;20047;-66
2022/11/27 01:58:03;;;;;;;54.28;13.10;;;;;;;;;;5113748;28;20045;-66
2022/11/27 02:00:29;;;;;;;43.47;12.35;;;;;;;;;;5113776;28;20493;-66
2022/11/27 02:02:55;;;;;;;78.63;15.30;;;;;;;;;;5113204;28;20140;-67
2022/11/27 02:05:23;;;;;;;66.57;15.15;;;;;;;;;;5113443;28;20035;-64
2022/11/27 02:07:50;;;;;;;60.97;15.02;;;;;;;;;;5113372;28;20035;-64
2022/11/27 02:10:16;;;;;;;47.15;13.23;;;;;;;;;;5113582;28;20039;-64
2022/11/27 02:13:00;;;;;;;43.83;13.55;;;;;;;;;;5113316;28;20019;-66
2022/11/27 02:15:48;;;;;;;45.42;13.60;;;;;;;;;;5113487;28;20519;-66
2022/11/27 02:18:37;;;;;;;44.35;12.13;;;;;;;;;;5113045;28;20019;-67
2022/11/27 02:21:36;;;;;;;38.67;13.02;;;;;;;;;;5113361;28;20121;-66
2022/11/27 02:24:26;;;;;;;33.13;13.15;;;;;;;;;;5030048;28;20041;-65
2022/11/27 02:27:23;;;;;;;51.33;13.80;;;;;;;;;;5030041;28;20522;-65
2022/11/27 02:29:54;;;;;;;34.00;13.88;;;;;;;;;;5028827;28;20049;-66
2022/11/27 02:32:42;;;;;;;43.30;12.70;;;;;;;;;;5029779;28;20033;-66
2022/11/27 02:35:14;;;;;;;57.55;12.90;;;;;;;;;;5030051;28;20053;-66
2022/11/27 02:37:50;;;;;;;58.58;12.82;;;;;;;;;;5013347;28;20545;-64
2022/11/27 02:40:40;;;;;;;40.13;12.43;;;;;;;;;;5029961;28;20122;-65
2022/11/27 02:43:16;;;;;;;36.22;12.50;;;;;;;;;;5029786;28;20044;-66
2022/11/27 02:45:51;;;;;;;32.10;11.63;;;;;;;;;;5029746;28;20037;-65
2022/11/27 02:48:25;;;;;;;27.80;11.85;;;;;;;;;;5029492;28;20551;-65
2022/11/27 02:50:52;;;;;;;22.92;11.63;;;;;;;;;;5029735;28;20042;-65
2022/11/27 02:53:28;;;;;;;30.88;11.45;;;;;;;;;;5029541;28;20113;-66
2022/11/27 02:55:55;;;;;;;50.10;11.98;;;;;;;;;;5029542;28;20033;-64
2022/11/27 02:58:23;;;;;;;34.03;12.15;;;;;;;;;;5029570;28;20463;-65
2022/11/27 03:00:50;;;;;;;36.47;12.93;;;;;;;;;;5067150;28;20548;-66
2022/11/27 03:03:19;;;;;;;62.97;13.45;;;;;;;;;;5112159;28;20042;-65
2022/11/27 03:05:48;;;;;;;48.67;13.57;;;;;;;;;;5112295;28;20577;-65
2022/11/27 03:08:16;;;;;;;71.00;14.27;;;;;;;;;;5112665;28;20043;-65
2022/11/27 03:10:58;;;;;;;55.47;13.60;;;;;;;;;;5112202;28;20027;-67
2022/11/27 03:13:24;;;;;;;47.22;13.52;;;;;;;;;;5112174;28;20047;-65
2022/11/27 03:16:08;;;;;;;57.35;14.77;;;;;;;;;;5111880;28;20039;-64
2022/11/27 03:19:00;;;;;;;50.67;13.77;;;;;;;;;;5112408;28;20532;-64
2022/11/27 03:22:01;;;;;;;43.42;14.57;;;;;;;;;;5104772;28;20126;-65
2022/11/27 03:24:29;;;;;;;54.05;14.43;;;;;;;;;;5048862;28;20029;-65
2022/11/27 03:26:57;;;;;;;53.47;13.77;;;;;;;;;;5048642;28;20442;-65
2022/11/27 03:29:29;;;;;;;39.13;10.98;;;;;;;;;;5048119;28;20148;-65
2022/11/27 03:31:56;;;;;;;77.20;13.10;;;;;;;;;;5048764;28;20474;-64
2022/11/27 03:34:21;;;;;;;55.65;12.73;;;;;;;;;;5048627;28;20045;-65
2022/11/27 03:36:47;;;;;;;51.53;13.25;;;;;;;;;;5048727;28;20025;-65
2022/11/27 03:39:13;;;;;;;34.63;11.85;;;;;;;;;;5048608;28;20478;-64
2022/11/27 03:41:53;;;;;;;36.88;11.60;;;;;;;;;;5048602;28;20032;-65
2022/11/27 03:44:40;;;;;;;33.97;11.75;;;;;;;;;;5048319;28;20033;-65
2022/11/27 03:47:11;;;;;;;22.70;9.50;;;;;;;;;;5032074;28;20071;-64
2022/11/27 03:50:03;;;;;;;24.13;10.32;;;;;;;;;;5048143;28;20234;-64
2022/11/27 03:52:47;;;;;;;25.60;9.95;;;;;;;;;;5049088;28;20052;-64
2022/11/27 03:55:42;;;;;;;19.48;9.23;;;;;;;;;;5049074;28;20036;-64
2022/11/27 03:58:14;;;;;;;18.48;8.60;;;;;;;;;;5064824;28;20428;-64
2022/11/27 04:00:42;;;;;;;23.27;10.48;;;;;;;;;;5091410;28;20031;-65
2022/11/27 04:03:10;;;;;;;19.60;9.43;;;;;;;;;;5091371;28;20032;-65
2022/11/27 04:05:36;;;;;;;17.70;8.68;;;;;;;;;;5091350;28;20039;-64
2022/11/27 04:08:01;;;;;;;19.20;9.20;;;;;;;;;;5091302;28;20028;-65
2022/11/27 04:10:27;;;;;;;18.27;8.70;;;;;;;;;;5091438;28;20012;-65
2022/11/27 04:12:52;;;;;;;22.92;9.23;;;;;;;;;;5090685;28;20028;-65
2022/11/27 04:15:18;;;;;;;20.88;8.88;;;;;;;;;;5090663;28;20032;-65
2022/11/27 04:17:43;;;;;;;19.35;8.30;;;;;;;;;;5090464;28;20028;-64
2022/11/27 04:20:11;;;;;;;22.65;9.68;;;;;;;;;;5090808;28;20107;-66
2022/11/27 04:22:37;;;;;;;23.02;9.75;;;;;;;;;;5091224;28;20035;-66
2022/11/27 04:25:02;;;;;;;22.45;10.07;;;;;;;;;;5095475;28;20032;-67
2022/11/27 04:27:28;;;;;;;26.25;10.48;;;;;;;;;;5111455;28;20084;-66
2022/11/27 04:29:53;;;;;;;22.52;10.18;;;;;;;;;;5111629;28;20024;-66
2022/11/27 04:32:19;;;;;;;19.05;9.40;;;;;;;;;;5111708;28;20027;-66
2022/11/27 04:34:44;;;;;;;21.45;9.32;;;;;;;;;;5111170;28;20048;-66
2022/11/27 04:37:10;;;;;;;22.40;9.18;;;;;;;;;;5111408;28;20020;-67
2022/11/27 04:39:35;;;;;;;21.40;9.68;;;;;;;;;;5112774;28;20662;-65
2022/11/27 04:42:01;;;;;;;27.83;10.10;;;;;;;;;;5115339;28;20153;-64
2022/11/27 04:44:26;;;;;;;26.80;10.25;;;;;;;;;;5115021;28;20044;-67
2022/11/27 04:46:52;;;;;;;23.02;10.30;;;;;;;;;;5115130;28;20024;-66
2022/11/27 04:49:17;;;;;;;23.13;10.02;;;;;;;;;;5114951;28;20084;-65
2022/11/27 04:51:43;;;;;;;21.60;9.77;;;;;;;;;;5114907;28;20031;-66
2022/11/27 04:54:08;;;;;;;23.15;10.07;;;;;;;;;;5115474;28;20019;-67
2022/11/27 04:56:34;;;;;;;22.77;10.07;;;;;;;;;;5115076;28;20032;-66
2022/11/27 04:58:59;;;;;;;24.63;10.35;;;;;;;;;;5115334;28;20034;-65
2022/11/27 05:01:24;;;;;;;23.58;10.68;;;;;;;;;;5115161;28;20027;-67
2022/11/27 05:03:50;;;;;;;28.10;11.77;;;;;;;;;;5115158;28;20027;-65
2022/11/27 05:06:15;;;;;;;24.15;10.90;;;;;;;;;;5115249;28;20023;-66
2022/11/27 05:08:41;;;;;;;28.52;11.65;;;;;;;;;;5115155;28;20522;-66
2022/11/27 05:11:10;;;;;;;27.80;10.93;;;;;;;;;;5114221;28;20024;-64
2022/11/27 05:13:35;;;;;;;26.25;11.40;;;;;;;;;;5114434;28;20069;-65
2022/11/27 05:16:01;;;;;;;28.58;12.10;;;;;;;;;;5114391;27;20019;-64
2022/11/27 05:18:27;;;;;;;37.28;12.25;;;;;;;;;;5114370;28;20106;-65
2022/11/27 05:21:01;;;;;;;24.15;12.00;;;;;;;;;;5115000;28;20386;-64
2022/11/27 05:23:27;;;;;;;26.90;11.63;;;;;;;;;;5115172;28;20110;-66
2022/11/27 05:25:53;;;;;;;31.52;12.50;;;;;;;;;;5113931;27;20084;-64
2022/11/27 05:28:20;;;;;;;27.30;13.18;;;;;;;;;;5112979;28;20111;-64
2022/11/27 05:30:46;;;;;;;30.25;12.63;;;;;;;;;;5114224;28;20111;-64
2022/11/27 05:33:11;;;;;;;34.92;12.93;;;;;;;;;;5113946;28;20048;-64
2022/11/27 05:35:37;;;;;;;34.42;13.70;;;;;;;;;;5114524;28;20080;-65
2022/11/27 05:38:03;;;;;;;29.05;12.80;;;;;;;;;;5114605;28;20100;-64
2022/11/27 05:40:28;;;;;;;29.45;12.52;;;;;;;;;;5114373;28;20470;-64
2022/11/27 05:42:54;;;;;;;31.40;13.20;;;;;;;;;;5113041;28;20035;-66
2022/11/27 05:45:19;;;;;;;32.88;11.93;;;;;;;;;;5114116;28;20079;-64
2022/11/27 05:47:45;;;;;;;34.70;13.55;;;;;;;;;;5113864;28;20526;-64
2022/11/27 05:50:10;;;;;;;41.55;14.18;;;;;;;;;;5113558;28;20068;-66
2022/11/27 05:52:36;;;;;;;31.00;13.18;;;;;;;;;;5113333;28;20106;-64
2022/11/27 05:55:02;;;;;;;41.47;12.40;;;;;;;;;;5114088;28;20032;-64
2022/11/27 05:57:29;;;;;;;33.70;12.93;;;;;;;;;;5114294;28;20101;-64
2022/11/27 05:59:55;;;;;;;43.45;13.95;;;;;;;;;;5114150;28;20072;-64
2022/11/27 06:02:21;;;;;;;37.63;14.40;;;;;;;;;;5112966;28;20038;-65
2022/11/27 06:04:46;;;;;;;35.97;13.73;;;;;;;;;;5113777;28;20032;-65
2022/11/27 06:07:12;;;;;;;41.22;13.13;;;;;;;;;;5113877;28;20115;-64
2022/11/27 06:09:37;;;;;;;33.22;13.23;;;;;;;;;;5113758;28;20351;-65
2022/11/27 06:12:03;;;;;;;42.67;13.32;;;;;;;;;;5113895;28;20076;-64
2022/11/27 06:14:30;;;;;;;35.33;14.23;;;;;;;;;;5113491;28;20114;-65
2022/11/27 06:16:56;;;;;;;36.83;12.68;;;;;;;;;;5112088;28;20027;-66
2022/11/27 06:19:22;;;;;;;36.55;14.82;;;;;;;;;;5113209;28;20468;-66
2022/11/27 06:21:47;;;;;;;41.05;13.27;;;;;;;;;;5113173;28;20070;-64
2022/11/27 06:24:13;;;;;;;29.58;10.15;;;;;;;;;;5113498;28;20020;-64
2022/11/27 06:26:38;;;;;;;41.85;14.52;;;;;;;;;;5113495;28;20027;-65
2022/11/27 06:29:04;;;;;;;38.53;13.30;;;;;;;;;;5113906;28;20023;-64
2022/11/27 06:31:31;;;;;;;39.92;13.60;;;;;;;;;;5113576;28;20080;-65
2022/11/27 06:33:58;;;;;;;38.40;13.02;;;;;;;;;;5113298;28;20039;-66
2022/11/27 06:36:27;;;;;;;21.55;9.13;;;;;;;;;;5113619;28;20023;-64
2022/11/27 06:38:53;;;;;;;45.50;15.40;;;;;;;;;;5113255;28;20043;-64
2022/11/27 06:41:21;;;;;;;48.58;14.27;;;;;;;;;;5113429;28;20020;-64
2022/11/27 06:43:46;;;;;;;45.17;14.15;;;;;;;;;;5112540;28;20068;-64
2022/11/27 06:46:14;;;;;;;43.58;14.43;;;;;;;;;;5112674;28;20077;-65
2022/11/27 06:48:41;;;;;;;53.70;14.95;;;;;;;;;;5112674;28;20072;-66
2022/11/27 06:51:09;;;;;;;37.67;13.73;;;;;;;;;;5112632;28;20024;-64
2022/11/27 06:53:36;;;;;;;36.53;13.43;;;;;;;;;;5112845;28;20489;-65
2022/11/27 06:56:07;;;;;;;51.85;14.57;;;;;;;;;;5112982;28;20042;-67
2022/11/27 06:58:33;;;;;;;35.10;13.57;;;;;;;;;;5112994;28;20031;-66
2022/11/27 07:01:00;;;;;;;39.72;14.35;;;;;;;;;;5112955;28;20028;-66
2022/11/27 07:03:26;;;;;;;39.08;12.57;;;;;;;;;;5111551;28;20040;-66
2022/11/27 07:05:52;;;;;;;40.03;12.68;;;;;;;;;;5112802;28;20038;-67
2022/11/27 07:08:17;;;;;;;44.65;13.20;;;;;;;;;;5112576;28;20058;-67
2022/11/27 07:10:43;;;;;;;26.85;9.02;;;;;;;;;;5112768;28;20020;-67
2022/11/27 07:13:08;;;;;;;42.53;13.23;;;;;;;;;;5112337;28;20035;-67
2022/11/27 07:15:34;;;;;;;34.95;12.85;;;;;;;;;;5111952;28;20051;-65
2022/11/27 07:18:00;;;;;;;36.63;10.60;;;;;;;;;;5111811;28;20122;-66
2022/11/27 07:20:26;;;;;;;41.10;12.98;;;;;;;;;;5112188;28;20102;-64
2022/11/27 07:22:51;;;;;;;41.75;12.07;;;;;;;;;;5112036;28;20016;-65
2022/11/27 07:25:17;;;;;;;41.60;14.15;;;;;;;;;;5112317;28;20069;-64
2022/11/27 07:27:42;;;;;;;50.95;14.50;;;;;;;;;;5112458;28;20027;-64
2022/11/27 07:30:08;;;;;;;34.55;11.40;;;;;;;;;;5112278;28;20462;-65
2022/11/27 07:32:34;;;;;;;56.90;14.95;;;;;;;;;;5112261;28;20051;-64
2022/11/27 07:34:59;;;;;;;53.67;13.50;;;;;;;;;;5112480;28;20482;-64
2022/11/27 07:37:25;;;;;;;41.45;13.82;;;;;;;;;;5112018;28;20027;-65
2022/11/27 07:39:50;;;;;;;52.35;14.02;;;;;;;;;;5112274;28;20072;-65
2022/11/27 07:42:16;;;;;;;42.67;12.63;;;;;;;;;;5111805;28;20046;-66
2022/11/27 07:44:41;;;;;;;42.58;13.68;;;;;;;;;;5110374;28;20137;-66
2022/11/27 07:47:07;;;;;;;43.03;13.15;;;;;;;;;;5111498;28;20474;-66
2022/11/27 07:49:32;;;;;;;57.65;14.07;;;;;;;;;;5111095;28;20023;-66
2022/11/27 07:51:57;;;;;;;50.30;13.75;;;;;;;;;;5111032;28;20034;-66
2022/11/27 07:54:23;;;;;;;49.55;13.60;;;;;;;;;;5112002;28;20027;-67
2022/11/27 07:56:48;;;;;;;62.13;14.95;;;;;;;;;;5111849;28;20244;-66
2022/11/27 07:59:14;;;;;;;55.58;13.30;;;;;;;;;;5111882;28;20043;-65
2022/11/27 08:01:39;;;;;;;34.38;10.85;;;;;;;;;;5110946;28;20482;-66
2022/11/27 08:04:05;;;;;;;52.88;13.38;;;;;;;;;;5110584;28;20028;-66
2022/11/27 08:06:30;;;;;;;47.45;14.35;;;;;;;;;;5110540;28;20024;-65
2022/11/27 08:08:56;;;;;;;45.70;13.57;;;;;;;;;;5110713;28;20442;-65
2022/11/27 08:11:31;;;;;;;44.97;13.45;;;;;;;;;;5110807;28;20073;-64
2022/11/27 08:14:03;;;;;;;62.38;14.15;;;;;;;;;;5111473;28;20040;-65
2022/11/27 08:16:30;;;;;;;56.80;14.63;;;;;;;;;;5111865;28;20027;-65
2022/11/27 08:18:56;;;;;;;50.17;13.45;;;;;;;;;;5105833;28;20110;-65
2022/11/27 08:21:22;;;;;;;57.22;13.93;;;;;;;;;;5104666;28;20111;-64
2022/11/27 08:23:47;;;;;;;41.90;13.02;;;;;;;;;;5111415;28;20024;-64
2022/11/27 08:26:13;;;;;;;47.67;14.13;;;;;;;;;;5111213;28;20031;-64
2022/11/27 08:28:40;;;;;;;54.53;14.48;;;;;;;;;;5109017;28;20304;-64
2022/11/27 08:31:07;;;;;;;48.10;14.77;;;;;;;;;;5108480;28;20144;-65
2022/11/27 08:33:33;;;;;;;47.63;14.05;;;;;;;;;;5111074;28;20043;-64
2022/11/27 08:36:01;;;;;;;24.60;9.60;;;;;;;;;;5110706;28;20043;-65
2022/11/27 08:38:26;;;;;;;52.55;14.90;;;;;;;;;;5104432;28;20099;-64
2022/11/27 08:40:57;;;;;;;40.85;15.30;;;;;;;;;;5110839;28;20107;-65
2022/11/27 08:43:22;;;;;;;;;;;;;;;;;;5111500;28;20061;-64
2022/11/27 08:45:48;;;;;;;32.60;12.32;;;;;;;;;;5111223;28;19961;-65
2022/11/27 08:48:14;;;;;;;36.42;11.98;;;;;;;;;;5108309;28;20493;-65
2022/11/27 08:50:40;;;;;;;39.83;13.35;;;;;;;;;;5092000;28;20171;-64
2022/11/27 08:53:07;;;;;;;47.85;13.98;;;;;;;;;;5092021;28;20036;-64
2022/11/27 08:55:32;;;;;;;38.83;14.02;;;;;;;;;;5092199;28;20016;-65
2022/11/27 08:57:58;;;;;;;45.25;14.30;;;;;;;;;;5092198;28;20032;-62
2022/11/27 09:00:25;;;;;;;39.92;13.02;;;;;;;;;;5090688;28;20043;-63
2022/11/27 09:02:52;;;;;;;38.88;14.25;;;;;;;;;;5090889;28;20378;-63
2022/11/27 09:05:18;;;;;;;23.80;9.68;;;;;;;;;;5092026;28;20028;-64
2022/11/27 09:07:43;;;;;;;34.00;12.57;;;;;;;;;;5091788;28;20021;-63
2022/11/27 09:10:09;;;;;;;55.92;16.70;;;;;;;;;;5092030;28;20016;-63
2022/11/27 09:12:37;;;;;;;40.45;14.38;;;;;;;;;;5091926;28;20113;-63
2022/11/27 09:15:03;;;;;;;39.50;12.55;;;;;;;;;;5091883;28;20020;-62
2022/11/27 09:17:29;;;;;;;41.28;14.73;;;;;;;;;;5090313;28;20375;-63
2022/11/27 09:19:55;;;;;;;38.75;14.65;;;;;;;;;;5091789;28;20024;-64
2022/11/27 09:22:22;;;;;;;36.70;14.77;;;;;;;;;;5092216;28;20032;-64
2022/11/27 09:24:49;;;;;;;37.67;14.35;;;;;;;;;;5093118;28;20046;-65
2022/11/27 09:27:15;;;;;;;32.88;13.00;;;;;;;;;;5114081;28;20451;-66
2022/11/27 09:29:41;;;;;;;39.08;14.98;;;;;;;;;;5116033;28;20040;-66
2022/11/27 09:32:07;;;;;;;36.17;14.15;;;;;;;;;;5114525;28;20031;-68
2022/11/27 09:34:32;;;;;;;31.25;13.57;;;;;;;;;;5116263;28;20043;-66
2022/11/27 09:36:57;;;;;;;36.95;15.15;;;;;;;;;;5105382;28;20094;-66
2022/11/27 09:39:25;;;;;;;33.13;14.52;;;;;;;;;;5095647;28;20020;-66
2022/11/27 09:41:54;;;;;;;42.63;14.82;;;;;;;;;;5095335;28;20399;-67
2022/11/27 09:44:45;;;;;;;35.83;15.50;;;;;;;;;;5111432;28;20061;-65
2022/11/27 09:47:17;;;;;;;;;;;;;;;;;;5116019;28;20031;-73
2022/11/27 09:49:49;;;;;;;28.25;12.73;;;;;;;;;;5115727;28;19917;-66
2022/11/27 09:52:53;;;;;;;28.50;12.82;;;;;;;;;;5115707;28;20026;-66
2022/11/27 09:55:41;;;;;;;28.50;13.73;;;;;;;;;;5032788;28;20044;-70
2022/11/27 09:58:36;;;;;;;33.50;14.45;;;;;;;;;;5032568;28;20052;-65
2022/11/27 10:01:11;;;;;;;34.78;15.05;;;;;;;;;;5032352;28;20026;-67
2022/11/27 10:03:38;;;;;;;30.52;14.75;;;;;;;;;;5032640;28;20029;-68
2022/11/27 10:06:23;;;;;;;39.13;14.65;;;;;;;;;;5032320;28;20115;-68
2022/11/27 10:08:54;;;;;;;36.15;15.38;;;;;;;;;;5032323;28;20032;-68
2022/11/27 10:11:22;;;;;;;36.30;15.88;;;;;;;;;;5032425;28;20048;-68
2022/11/27 10:14:09;;;;;;;35.75;14.88;;;;;;;;;;5030951;28;20081;-68
2022/11/27 10:17:14;;;;;;;30.23;13.55;;;;;;;;;;5032169;28;20515;-68
2022/11/27 10:19:52;;;;;;;37.45;15.82;;;;;;;;;;5031892;28;20045;-68
2022/11/27 10:22:27;;;;;;;31.48;15.10;;;;;;;;;;5032313;28;20025;-68
2022/11/27 10:24:52;;;;;;;31.17;14.10;;;;;;;;;;5032152;28;20053;-68
2022/11/27 10:27:53;;;;;;;32.40;14.73;;;;;;;;;;5032210;28;20473;-68
2022/11/27 10:30:20;;;;;;;31.02;14.00;;;;;;;;;;5049875;28;20432;-68
2022/11/27 10:32:49;;;;;;;28.95;13.35;;;;;;;;;;5094289;28;20101;-68
2022/11/27 10:35:18;;;;;;;32.22;14.30;;;;;;;;;;5101642;28;20062;-68
2022/11/27 10:38:00;;;;;;;33.38;15.18;;;;;;;;;;5114388;28;20084;-68
2022/11/27 10:40:53;;;;;;;28.63;14.60;;;;;;;;;;5114756;28;20028;-67
2022/11/27 10:43:24;;;;;;;35.50;15.75;;;;;;;;;;5114649;28;20047;-67
2022/11/27 10:45:57;;;;;;;33.83;16.00;;;;;;;;;;5114279;28;20533;-67
2022/11/27 10:48:23;;;;;;;35.20;16.33;;;;;;;;;;5113902;28;20451;-68
2022/11/27 10:50:50;;;;;;;33.85;15.27;;;;;;;;;;5114618;28;20103;-68
2022/11/27 10:53:29;;;;;;;32.38;15.43;;;;;;;;;;5114361;28;20110;-67
2022/11/27 10:56:00;;;;;;;32.20;14.57;;;;;;;;;;5111397;28;20055;-67
2022/11/27 10:58:31;;;;;;;33.80;15.27;;;;;;;;;;5114373;28;20024;-68
2022/11/27 11:01:06;;;;;;;33.28;16.13;;;;;;;;;;5114303;28;20076;-67
2022/11/27 11:03:32;;;;;;;32.53;16.15;;;;;;;;;;5114151;28;20032;-68
2022/11/27 11:06:22;;;;;;;26.88;13.70;;;;;;;;;;5114156;28;20069;-67
2022/11/27 11:09:00;;;;;;;29.48;14.65;;;;;;;;;;5113825;28;20055;-68
2022/11/27 11:11:26;;;;;;;29.90;15.07;;;;;;;;;;5114040;28;20028;-67
2022/11/27 11:13:51;;;;;;;29.80;15.30;;;;;;;;;;5113844;28;20032;-68
2022/11/27 11:16:23;;;;;;;37.53;15.93;;;;;;;;;;5114264;28;20023;-68
2022/11/27 11:18:52;;;;;;;29.27;14.63;;;;;;;;;;5113897;27;20031;-68
2022/11/27 11:21:28;;;;;;;31.48;15.32;;;;;;;;;;5113994;28;20024;-68
2022/11/27 11:24:14;;;;;;;30.25;14.82;;;;;;;;;;5112474;28;20023;-68
2022/11/27 11:26:46;;;;;;;33.45;13.38;;;;;;;;;;5113420;28;20047;-68
2022/11/27 11:29:40;;;;;;;31.67;15.32;;;;;;;;;;5113697;28;20026;-68
2022/11/27 11:32:29;;;;;;;29.85;15.25;;;;;;;;;;5113634;28;20178;-67
2022/11/27 11:34:59;;;;;;;28.17;15.40;;;;;;;;;;5110467;28;20082;-69
2022/11/27 11:37:37;;;;;;;30.65;15.45;;;;;;;;;;5113651;28;20032;-67
2022/11/27 11:40:07;;;;;;;23.67;13.90;;;;;;;;;;5113589;28;20024;-67
2022/11/27 11:42:35;;;;;;;22.88;13.73;;;;;;;;;;5113836;28;20022;-66
2022/11/27 11:45:09;;;;;;;25.70;14.48;;;;;;;;;;5113451;28;20466;-67
2022/11/27 11:47:44;;;;;;;28.02;14.88;;;;;;;;;;5113493;28;20059;-68
2022/11/27 11:50:13;;;;;;;26.52;13.88;;;;;;;;;;5111833;28;20035;-67
2022/11/27 11:53:02;;;;;;;29.55;15.07;;;;;;;;;;5110903;28;20473;-67
2022/11/27 11:55:51;;;;;;;25.80;13.68;;;;;;;;;;5098898;28;20371;-68
2022/11/27 11:58:54;;;;;;;26.80;14.35;;;;;;;;;;5112746;28;20024;-68
2022/11/27 12:02:16;;;;;;;26.98;13.25;;;;;;;;;;5108324;28;20039;-68
2022/11/27 12:05:06;;;;;;;23.55;12.38;;;;;;;;;;5047560;28;20137;-69
2022/11/27 12:07:40;;;;;;;24.00;13.68;;;;;;;;;;5049819;28;20115;-67
2022/11/27 12:10:22;;;;;;;24.17;12.75;;;;;;;;;;5049775;28;20484;-67
2022/11/27 12:13:05;;;;;;;24.73;13.38;;;;;;;;;;5049945;28;20391;-67
2022/11/27 12:15:41;;;;;;;26.55;14.05;;;;;;;;;;5050171;28;20052;-67
2022/11/27 12:18:12;;;;;;;17.73;9.25;;;;;;;;;;5033099;28;20087;-67
2022/11/27 12:21:05;;;;;;;25.48;14.32;;;;;;;;;;5030426;28;20030;-66
2022/11/27 12:23:49;;;;;;;19.67;12.23;;;;;;;;;;5030431;28;20065;-68
2022/11/27 12:26:33;;;;;;;21.20;12.15;;;;;;;;;;5043020;28;20076;-67
2022/11/27 12:29:08;;;;;;;25.67;12.68;;;;;;;;;;5049158;28;20044;-67
2022/11/27 12:32:14;;;;;;;24.52;13.00;;;;;;;;;;5049385;28;20120;-66
2022/11/27 12:35:04;;;;;;;21.80;12.45;;;;;;;;;;5049901;28;20160;-67
2022/11/27 12:37:57;;;;;;;9.88;5.47;;;;;;;;;;5050237;28;20040;-67
2022/11/27 12:41:00;;;;;;;23.75;11.70;;;;;;;;;;5059466;28;20038;-66
2022/11/27 12:43:27;;;;;;;21.85;12.32;;;;;;;;;;5112424;28;20031;-66
2022/11/27 12:45:58;;;;;;;23.63;12.68;;;;;;;;;;5112476;28;20476;-69
2022/11/27 12:48:34;;;;;;;22.33;11.85;;;;;;;;;;5112739;28;20024;-66
2022/11/27 12:51:09;;;;;;;26.00;13.48;;;;;;;;;;5112422;28;20114;-66
2022/11/27 12:53:38;;;;;;;27.17;11.73;;;;;;;;;;5112536;28;20140;-69
2022/11/27 12:56:15;;;;;;;23.35;11.95;;;;;;;;;;5110242;28;20024;-69
2022/11/27 12:58:49;;;;;;;21.70;11.63;;;;;;;;;;5110528;28;20054;-70
2022/11/27 13:01:20;;;;;;;23.83;11.90;;;;;;;;;;5115003;28;20023;-72
2022/11/27 13:04:02;;;;;;;21.40;11.90;;;;;;;;;;5113420;28;20027;-70
2022/11/27 13:06:32;;;;;;;23.20;11.23;;;;;;;;;;5113067;28;20076;-71
2022/11/27 13:09:24;;;;;;;24.58;13.13;;;;;;;;;;5116672;28;20023;-73
2022/11/27 13:11:50;;;;;;;25.77;12.38;;;;;;;;;;5115980;28;20032;-70
2022/11/27 13:14:20;;;;;;;26.40;12.27;;;;;;;;;;5116469;28;20107;-71
2022/11/27 13:17:00;;;;;;;20.48;12.32;;;;;;;;;;5116401;28;20027;-71
2022/11/27 13:19:39;;;;;;;23.30;11.00;;;;;;;;;;5116306;28;20057;-71
2022/11/27 13:22:11;;;;;;;17.20;9.73;;;;;;;;;;5116006;28;20409;-72
2022/11/27 13:24:37;;;;;;;17.45;9.02;;;;;;;;;;5115606;28;20027;-71
2022/11/27 13:27:08;;;;;;;19.40;10.05;;;;;;;;;;5116055;28;20038;-71
2022/11/27 13:29:43;;;;;;;24.38;12.93;;;;;;;;;;5116097;28;20020;-72
2022/11/27 13:32:17;;;;;;;18.38;9.98;;;;;;;;;;5115845;28;20023;-72
2022/11/27 13:34:46;;;;;;;20.88;12.25;;;;;;;;;;5114381;28;20046;-69
2022/11/27 13:37:28;;;;;;;22.35;12.13;;;;;;;;;;5115776;28;20035;-71
2022/11/27 13:40:03;;;;;;;21.80;12.13;;;;;;;;;;5115487;28;20031;-70
2022/11/27 13:42:30;;;;;;;21.52;10.60;;;;;;;;;;5115739;28;20072;-69
2022/11/27 13:44:58;;;;;;;21.60;10.77;;;;;;;;;;5115822;28;20024;-70
2022/11/27 13:47:27;;;;;;;23.50;12.93;;;;;;;;;;5115614;28;20019;-70
2022/11/27 13:50:04;;;;;;;23.63;11.82;;;;;;;;;;5115459;28;20489;-70
2022/11/27 13:52:30;;;;;;;17.52;8.63;;;;;;;;;;5115517;28;20232;-70
2022/11/27 13:54:57;;;;;;;23.35;12.07;;;;;;;;;;5115324;28;20336;-70
2022/11/27 13:57:24;;;;;;;31.08;12.77;;;;;;;;;;5115631;28;20026;-69
2022/11/27 13:59:58;;;;;;;33.78;13.20;;;;;;;;;;5115230;28;20028;-69
2022/11/27 14:02:37;;;;;;;20.77;11.98;;;;;;;;;;5115359;28;20130;-69
2022/11/27 14:05:03;;;;;;;26.42;13.25;;;;;;;;;;5115272;28;20118;-69
2022/11/27 14:07:58;;;;;;;27.27;13.82;;;;;;;;;;5115207;28;20161;-69
2022/11/27 14:10:27;;;;;;;24.30;13.63;;;;;;;;;;5101787;28;20124;-70
2022/11/27 14:13:00;;;;;;;27.48;13.45;;;;;;;;;;5114435;28;20065;-70
2022/11/27 14:15:28;;;;;;;29.58;13.52;;;;;;;;;;5115050;28;20084;-70
2022/11/27 14:18:07;;;;;;;28.77;13.48;;;;;;;;;;5114721;28;20028;-70
2022/11/27 14:20:36;;;;;;;23.35;12.77;;;;;;;;;;5114854;28;20031;-70
2022/11/27 14:23:02;;;;;;;23.23;11.15;;;;;;;;;;5114546;28;20020;-70
2022/11/27 14:25:30;;;;;;;17.10;7.30;;;;;;;;;;5113894;28;20027;-70
2022/11/27 14:27:57;;;;;;;29.00;10.68;;;;;;;;;;5113676;28;20501;-69
2022/11/27 14:30:38;;;;;;;29.48;12.70;;;;;;;;;;5114544;28;20062;-69
2022/11/27 14:33:04;;;;;;;24.92;12.20;;;;;;;;;;5114868;28;20020;-71
2022/11/27 14:35:30;;;;;;;25.48;13.10;;;;;;;;;;5114710;28;20056;-70
2022/11/27 14:38:14;;;;;;;26.38;12.75;;;;;;;;;;5114296;28;20024;-70
2022/11/27 14:40:40;;;;;;;21.38;10.73;;;;;;;;;;5114587;28;20402;-69
2022/11/27 14:43:12;;;;;;;30.60;14.07;;;;;;;;;;5114541;28;20023;-68